createdAt,value
2018-09-11T06:55:42.756Z,1020.22
2018-09-11T06:56:23.576Z,1020.23
2018-09-11T06:57:04.328Z,1020.19
2018-09-11T06:57:45.096Z,1020.19
2018-09-11T06:58:25.954Z,1020.19
2018-09-11T06:59:06.869Z,1020.18
2018-09-11T06:59:47.577Z,1020.21
2018-09-11T07:00:28.345Z,1020.18
2018-09-11T07:01:09.023Z,1020.16
2018-09-11T07:01:49.753Z,1020.19
2018-09-11T07:02:30.586Z,1020.23
2018-09-11T07:03:11.360Z,1020.25
2018-09-11T07:03:52.219Z,1020.23
2018-09-11T07:04:32.938Z,1020.22
2018-09-11T07:05:13.675Z,1020.24
2018-09-11T07:05:54.437Z,1020.21
2018-09-11T07:06:35.246Z,1020.22
2018-09-11T07:07:15.963Z,1020.23
2018-09-11T07:07:56.663Z,1020.24
2018-09-11T07:08:37.481Z,1020.22
2018-09-11T07:09:18.208Z,1020.28
2018-09-11T07:09:59.008Z,1020.26
2018-09-11T07:10:39.828Z,1020.23
2018-09-11T07:11:20.565Z,1020.26
2018-09-11T07:12:01.246Z,1020.29
2018-09-11T07:12:41.987Z,1020.32
2018-09-11T07:13:22.767Z,1020.3
2018-09-11T07:14:03.610Z,1020.3
2018-09-11T07:14:44.371Z,1020.26
2018-09-11T07:15:25.133Z,1020.28
2018-09-11T07:16:05.978Z,1020.3
2018-09-11T07:16:46.746Z,1020.28
2018-09-11T07:17:27.555Z,1020.28
2018-09-11T07:18:08.317Z,1020.26
2018-09-11T07:18:49.057Z,1020.32
2018-09-11T07:19:29.942Z,1020.29
2018-09-11T07:20:10.791Z,1020.3
2018-09-11T07:20:51.406Z,1020.3
2018-09-11T07:21:32.226Z,1020.28
2018-09-11T07:22:12.928Z,1020.32
2018-09-11T07:22:53.660Z,1020.33
2018-09-11T07:23:34.466Z,1020.29
2018-09-11T07:24:15.169Z,1020.3
2018-09-11T07:24:55.899Z,1020.32
2018-09-11T07:25:36.638Z,1020.32
2018-09-11T07:26:17.428Z,1020.35
2018-09-11T07:26:58.235Z,1020.34
2018-09-11T07:27:38.981Z,1020.33
2018-09-11T07:28:19.735Z,1020.31
2018-09-11T07:29:00.604Z,1020.33
2018-09-11T07:29:41.360Z,1020.32
2018-09-11T07:30:22.256Z,1020.36
2018-09-11T07:31:02.901Z,1020.38
2018-09-11T07:31:43.720Z,1020.37
2018-09-11T07:32:24.525Z,1020.36
2018-09-11T07:33:05.201Z,1020.36
2018-09-11T07:33:45.934Z,1020.37
2018-09-11T07:34:26.663Z,1020.39
2018-09-11T07:35:07.473Z,1020.38
2018-09-11T07:35:48.332Z,1020.36
2018-09-11T07:36:29.193Z,1020.4
2018-09-11T07:37:09.908Z,1020.4
2018-09-11T07:37:50.681Z,1020.45
2018-09-11T07:38:31.342Z,1020.4
2018-09-11T07:39:12.110Z,1020.45
2018-09-11T07:39:52.949Z,1020.43
2018-09-11T07:40:33.648Z,1020.46
2018-09-11T07:41:14.371Z,1020.5
2018-09-11T07:41:55.199Z,1020.49
2018-09-11T07:42:35.956Z,1020.52
2018-09-11T07:43:16.780Z,1020.51
2018-09-11T07:43:57.569Z,1020.5
2018-09-11T07:44:38.304Z,1020.51
2018-09-11T07:45:19.004Z,1020.54
2018-09-11T07:45:59.830Z,1020.54
2018-09-11T07:46:40.578Z,1020.52
2018-09-11T07:47:21.415Z,1020.53
2018-09-11T07:48:02.163Z,1020.51
2018-09-11T07:48:42.919Z,1020.52
2018-09-11T07:49:23.760Z,1020.53
2018-09-11T07:50:04.518Z,1020.53
2018-09-11T07:50:45.230Z,1020.52
2018-09-11T07:51:26.000Z,1020.54
2018-09-11T07:52:06.726Z,1020.55
2018-09-11T07:52:47.588Z,1020.55
2018-09-11T07:53:28.363Z,1020.52
2018-09-11T07:54:09.149Z,1020.55
2018-09-11T07:54:49.904Z,1020.5
2018-09-11T07:55:30.611Z,1020.53
2018-09-11T07:56:11.384Z,1020.52
2018-09-11T07:56:52.215Z,1020.51
2018-09-11T07:57:33.019Z,1020.53
2018-09-11T07:58:13.663Z,1020.49
2018-09-11T07:58:54.458Z,1020.52
2018-09-11T07:59:35.266Z,1020.52
2018-09-11T08:00:16.081Z,1020.53
2018-09-11T08:00:56.831Z,1020.53
2018-09-11T08:01:37.559Z,1020.53
2018-09-11T08:02:18.441Z,1020.48
2018-09-11T08:02:59.256Z,1020.49
2018-09-11T08:03:39.976Z,1020.5
2018-09-11T08:04:20.710Z,1020.54
2018-09-11T08:05:01.543Z,1020.5
2018-09-11T08:05:42.298Z,1020.51
2018-09-11T08:06:23.734Z,1020.5
2018-09-11T08:07:04.475Z,1020.48
2018-09-11T08:07:45.332Z,1020.51
2018-09-11T08:08:26.123Z,1020.5
2018-09-11T08:09:06.940Z,1020.49
2018-09-11T08:09:47.680Z,1020.51
2018-09-11T08:10:28.403Z,1020.5
2018-09-11T08:11:09.154Z,1020.47
2018-09-11T08:11:49.939Z,1020.46
2018-09-11T08:12:30.721Z,1020.48
2018-09-11T08:13:11.544Z,1020.47
2018-09-11T08:13:52.327Z,1020.48
2018-09-11T08:14:33.051Z,1020.5
2018-09-11T08:15:13.885Z,1020.5
2018-09-11T08:15:54.655Z,1020.49
2018-09-11T08:16:35.459Z,1020.53
2018-09-11T08:17:16.167Z,1020.53
2018-09-11T08:17:56.914Z,1020.55
2018-09-11T08:18:37.782Z,1020.54
2018-09-11T08:19:18.560Z,1020.53
2018-09-11T08:19:59.485Z,1020.59
2018-09-11T08:20:40.100Z,1020.55
2018-09-11T08:21:20.821Z,1020.56
2018-09-11T08:22:01.519Z,1020.56
2018-09-11T08:22:42.320Z,1020.54
2018-09-11T08:23:23.063Z,1020.58
2018-09-11T08:24:03.803Z,1020.62
2018-09-11T08:24:44.561Z,1020.59
2018-09-11T08:25:25.364Z,1020.6
2018-09-11T08:26:06.199Z,1020.62
2018-09-11T08:26:46.949Z,1020.65
2018-09-11T08:27:27.720Z,1020.67
2018-09-11T08:28:08.455Z,1020.66
2018-09-11T08:28:49.243Z,1020.66
2018-09-11T08:29:30.220Z,1020.68
2018-09-11T08:30:10.886Z,1020.66
2018-09-11T08:30:51.685Z,1020.68
2018-09-11T08:31:32.407Z,1020.7
2018-09-11T08:32:13.162Z,1020.65
2018-09-11T08:32:54.006Z,1020.69
2018-09-11T08:33:34.776Z,1020.72
2018-09-11T08:34:15.484Z,1020.74
2018-09-11T08:34:56.217Z,1020.75
2018-09-11T08:35:36.962Z,1020.78
2018-09-11T08:36:17.786Z,1020.8
2018-09-11T08:36:58.542Z,1020.8
2018-09-11T08:37:39.310Z,1020.82
2018-09-11T08:38:20.133Z,1020.84
2018-09-11T08:39:00.925Z,1020.81
2018-09-11T08:39:41.714Z,1020.89
2018-09-11T08:40:22.458Z,1020.87
2018-09-11T08:41:03.250Z,1020.89
2018-09-11T08:41:44.083Z,1020.92
2018-09-11T08:42:24.824Z,1020.89
2018-09-11T08:43:05.539Z,1020.93
2018-09-11T08:43:46.307Z,1020.96
2018-09-11T08:44:27.105Z,1020.98
2018-09-11T08:45:07.901Z,1021.04
2018-09-11T08:45:48.744Z,1021.05
2018-09-11T08:46:29.548Z,1021.02
2018-09-11T08:47:10.269Z,1021.08
2018-09-11T08:47:51.035Z,1021.1
2018-09-11T08:48:31.839Z,1021.11
2018-09-11T08:49:12.619Z,1021.14
2018-09-11T08:49:53.383Z,1021.11
2018-09-11T08:50:34.076Z,1021.19
2018-09-11T08:51:14.875Z,1021.14
2018-09-11T08:51:55.667Z,1021.16
2018-09-11T08:52:36.645Z,1021.17
2018-09-11T08:53:17.232Z,1021.17
2018-09-11T08:53:58.032Z,1021.12
2018-09-11T08:54:38.800Z,1021.13
2018-09-11T08:55:19.547Z,1021.13
2018-09-11T08:56:00.299Z,1021.12
2018-09-11T08:56:41.008Z,1021.07
2018-09-11T08:57:21.816Z,1021.15
2018-09-11T08:58:02.582Z,1021.13
2018-09-11T08:58:43.407Z,1021.13
2018-09-11T08:59:24.118Z,1021.13
2018-09-11T09:00:04.919Z,1021.15
2018-09-11T09:00:45.722Z,1021.14
2018-09-11T09:01:26.539Z,1021.18
2018-09-11T09:02:07.290Z,1021.18
2018-09-11T09:02:48.029Z,1021.26
2018-09-11T09:03:28.742Z,1021.22
2018-09-11T09:04:09.596Z,1021.24
2018-09-11T09:04:50.396Z,1021.26
2018-09-11T09:05:31.190Z,1021.3
2018-09-11T09:06:11.916Z,1021.31
2018-09-11T09:06:52.766Z,1021.31
2018-09-11T09:07:33.524Z,1021.36
2018-09-11T09:08:14.293Z,1021.38
2018-09-11T09:08:55.048Z,1021.43
2018-09-11T09:09:35.846Z,1021.53
2018-09-11T09:10:16.669Z,1021.59
2018-09-11T09:10:57.448Z,1021.61
2018-09-11T09:11:38.177Z,1021.65
2018-09-11T09:12:18.920Z,1021.66
2018-09-11T09:12:59.766Z,1021.7
2018-09-11T09:13:40.563Z,1021.72
2018-09-11T09:14:21.373Z,1021.68
2018-09-11T09:15:02.201Z,1021.67
2018-09-11T09:15:42.981Z,1021.62
2018-09-11T09:16:23.740Z,1021.62
2018-09-11T09:17:04.449Z,1021.5
2018-09-11T09:17:45.243Z,1021.41
2018-09-11T09:18:25.961Z,1021.35
2018-09-11T09:19:06.754Z,1021.29
2018-09-11T09:19:47.547Z,1021.23
2018-09-11T09:20:28.361Z,1021.18
2018-09-11T09:21:09.149Z,1021.1
2018-09-11T09:21:49.903Z,1021.04
2018-09-11T09:22:30.663Z,1021.02
2018-09-11T09:23:11.401Z,1020.98
2018-09-11T09:23:52.231Z,1020.97
2018-09-11T09:24:33.000Z,1021.01
2018-09-11T09:25:13.762Z,1021.02
2018-09-11T09:25:54.544Z,1021.04
2018-09-11T09:26:35.347Z,1021.05
2018-09-11T09:27:16.206Z,1021.07
2018-09-11T09:27:56.879Z,1021.08
2018-09-11T09:28:37.641Z,1021.09
2018-09-11T09:29:18.385Z,1021.14
2018-09-11T09:29:59.201Z,1021.17
2018-09-11T09:30:39.976Z,1021.16
2018-09-11T09:31:20.822Z,1021.21
2018-09-11T09:32:01.595Z,1021.2
2018-09-11T09:32:42.362Z,1021.24
2018-09-11T09:33:23.189Z,1021.26
2018-09-11T09:34:04.005Z,1021.25
2018-09-11T09:34:44.725Z,1021.29
2018-09-11T09:35:25.457Z,1021.31
2018-09-11T09:36:06.207Z,1021.26
2018-09-11T09:36:47.072Z,1021.29
2018-09-11T09:37:27.811Z,1021.28
2018-09-11T09:38:08.646Z,1021.27
2018-09-11T09:38:49.446Z,1021.22
2018-09-11T09:39:30.178Z,1021.2
2018-09-11T09:40:10.926Z,1021.21
2018-09-11T09:40:51.704Z,1021.22
2018-09-11T09:41:32.492Z,1021.21
2018-09-11T09:42:13.255Z,1021.22
2018-09-11T09:42:54.011Z,1021.23
2018-09-11T09:43:34.815Z,1021.25
2018-09-11T09:44:15.654Z,1021.28
2018-09-11T09:44:56.466Z,1021.28
2018-09-11T09:45:37.183Z,1021.22
2018-09-11T09:46:18.002Z,1021.26
2018-09-11T09:46:58.804Z,1021.26
2018-09-11T09:47:39.536Z,1021.25
2018-09-11T09:48:20.242Z,1021.25
2018-09-11T09:49:01.018Z,1021.24
2018-09-11T09:49:41.804Z,1021.27
2018-09-11T09:50:22.609Z,1021.23
2018-09-11T09:51:03.391Z,1021.22
2018-09-11T09:51:44.179Z,1021.14
2018-09-11T09:52:24.962Z,1021.18
2018-09-11T09:53:05.780Z,1021.16
2018-09-11T09:53:46.548Z,1021.1
2018-09-11T09:54:27.279Z,1021.12
2018-09-11T09:55:08.066Z,1021.12
2018-09-11T09:55:48.816Z,1021.11
2018-09-11T09:56:29.638Z,1021.08
2018-09-11T09:57:10.474Z,1021.09
2018-09-11T09:57:51.267Z,1021.08
2018-09-11T09:58:32.027Z,1021.11
2018-09-11T09:59:12.786Z,1021.17
2018-09-11T09:59:53.620Z,1021.12
2018-09-11T10:00:34.312Z,1021.19
2018-09-11T10:01:15.055Z,1021.18
2018-09-11T10:01:55.786Z,1021.17
2018-09-11T10:02:36.575Z,1021.21
2018-09-11T10:03:17.399Z,1021.17
2018-09-11T10:03:58.200Z,1021.17
2018-09-11T10:04:39.107Z,1021.13
2018-09-11T10:05:19.754Z,1021.08
2018-09-11T10:06:00.470Z,1021.06
2018-09-11T10:06:41.214Z,1021.05
2018-09-11T10:07:22.006Z,1021.01
2018-09-11T10:08:02.818Z,1021.01
2018-09-11T10:08:43.551Z,1021.01
2018-09-11T10:09:24.303Z,1020.99
2018-09-11T10:10:05.134Z,1020.95
2018-09-11T10:10:45.898Z,1020.98
2018-09-11T10:11:26.663Z,1020.98
2018-09-11T10:12:07.403Z,1020.99
2018-09-11T10:12:48.168Z,1020.95
2018-09-11T10:13:28.927Z,1020.97
2018-09-11T10:14:09.720Z,1020.97
2018-09-11T10:14:50.531Z,1020.95
2018-09-11T10:15:31.328Z,1020.98
2018-09-11T10:16:12.068Z,1020.95
2018-09-11T10:16:52.810Z,1020.96
2018-09-11T10:17:33.688Z,1020.96
2018-09-11T10:18:14.375Z,1020.95
2018-09-11T10:18:55.102Z,1020.97
2018-09-11T10:19:35.847Z,1020.95
2018-09-11T10:20:16.602Z,1020.95
2018-09-11T10:20:57.402Z,1020.9
2018-09-11T10:21:38.178Z,1020.89
2018-09-11T10:22:18.913Z,1020.91
2018-09-11T10:22:59.764Z,1020.87
2018-09-11T10:23:40.601Z,1020.92
2018-09-11T10:24:21.400Z,1020.89
2018-09-11T10:25:02.167Z,1020.86
2018-09-11T10:25:42.941Z,1020.88
2018-09-11T10:26:23.794Z,1020.9
2018-09-11T10:27:04.476Z,1020.85
2018-09-11T10:27:45.278Z,1020.84
2018-09-11T10:28:25.945Z,1020.87
2018-09-11T10:29:06.721Z,1020.87
2018-09-11T10:29:47.548Z,1020.88
2018-09-11T10:30:28.337Z,1020.8
2018-09-11T10:31:09.079Z,1020.81
2018-09-11T10:31:49.814Z,1020.84
2018-09-11T10:32:30.563Z,1020.77
2018-09-11T10:33:11.309Z,1020.81
2018-09-11T10:33:52.310Z,1020.81
2018-09-11T10:34:32.964Z,1020.84
2018-09-11T10:35:13.685Z,1020.85
2018-09-11T10:35:54.499Z,1020.82
2018-09-11T10:36:35.275Z,1020.84
2018-09-11T10:37:16.118Z,1020.83
2018-09-11T10:37:56.848Z,1020.82
2018-09-11T10:38:37.556Z,1020.8
2018-09-11T10:39:18.325Z,1020.78
2018-09-11T10:39:59.071Z,1020.84
2018-09-11T10:40:39.894Z,1020.81
2018-09-11T10:41:20.734Z,1020.8
2018-09-11T10:42:01.494Z,1020.75
2018-09-11T10:42:42.227Z,1020.78
2018-09-11T10:43:23.055Z,1020.75
2018-09-11T10:44:03.819Z,1020.73
2018-09-11T10:44:44.551Z,1020.73
2018-09-11T10:45:25.295Z,1020.76
2018-09-11T10:46:06.090Z,1020.75
2018-09-11T10:46:46.905Z,1020.8
2018-09-11T10:47:27.712Z,1020.8
2018-09-11T10:48:08.569Z,1020.74
2018-09-11T10:48:49.414Z,1020.78
2018-09-11T10:49:30.100Z,1020.75
2018-09-11T10:50:10.863Z,1020.82
2018-09-11T10:50:51.668Z,1020.8
2018-09-11T10:51:32.455Z,1020.78
2018-09-11T10:52:13.203Z,1020.77
2018-09-11T10:52:54.018Z,1020.78
2018-09-11T10:53:34.853Z,1020.77
2018-09-11T10:54:15.655Z,1020.75
2018-09-11T10:54:56.421Z,1020.78
2018-09-11T10:55:37.147Z,1020.72
2018-09-11T10:56:17.968Z,1020.71
2018-09-11T10:56:58.851Z,1020.73
2018-09-11T10:57:39.599Z,1020.67
2018-09-11T10:58:20.352Z,1020.71
2018-09-11T10:59:01.024Z,1020.71
2018-09-11T10:59:41.841Z,1020.69
2018-09-11T11:00:22.619Z,1020.72
2018-09-11T11:01:03.330Z,1020.72
2018-09-11T11:01:44.186Z,1020.72
2018-09-11T11:02:25.037Z,1020.66
2018-09-11T11:03:05.915Z,1020.7
2018-09-11T11:03:46.647Z,1020.72
2018-09-11T11:04:27.412Z,1020.68
2018-09-11T11:05:08.175Z,1020.7
2018-09-11T11:05:48.944Z,1020.71
2018-09-11T11:06:29.821Z,1020.66
2018-09-11T11:07:10.589Z,1020.7
2018-09-11T11:07:51.355Z,1020.73
2018-09-11T11:08:32.147Z,1020.67
2018-09-11T11:09:12.910Z,1020.77
2018-09-11T11:09:53.750Z,1020.73
2018-09-11T11:10:34.500Z,1020.7
2018-09-11T11:11:15.276Z,1020.68
2018-09-11T11:11:56.005Z,1020.71
2018-09-11T11:12:36.834Z,1020.64
2018-09-11T11:13:17.618Z,1020.66
2018-09-11T11:13:58.308Z,1020.61
2018-09-11T11:14:39.080Z,1020.65
2018-09-11T11:15:19.861Z,1020.55
2018-09-11T11:16:00.736Z,1020.56
2018-09-11T11:16:41.490Z,1020.52
2018-09-11T11:17:22.220Z,1020.56
2018-09-11T11:18:03.009Z,1020.54
2018-09-11T11:18:43.764Z,1020.5
2018-09-11T11:19:24.487Z,1020.52
2018-09-11T11:20:05.228Z,1020.47
2018-09-11T11:20:45.969Z,1020.47
2018-09-11T11:21:26.815Z,1020.46
2018-09-11T11:22:07.618Z,1020.45
2018-09-11T11:22:48.464Z,1020.48
2018-09-11T11:23:29.223Z,1020.43
2018-09-11T11:24:09.946Z,1020.44
2018-09-11T11:24:50.698Z,1020.43
2018-09-11T11:25:31.465Z,1020.47
2018-09-11T11:26:12.289Z,1020.47
2018-09-11T11:26:53.033Z,1020.47
2018-09-11T11:27:33.946Z,1020.45
2018-09-11T11:28:14.746Z,1020.49
2018-09-11T11:28:55.550Z,1020.51
2018-09-11T11:29:36.319Z,1020.49
2018-09-11T11:30:17.033Z,1020.52
2018-09-11T11:30:57.822Z,1020.46
2018-09-11T11:31:38.618Z,1020.46
2018-09-11T11:32:19.449Z,1020.42
2018-09-11T11:33:00.122Z,1020.47
2018-09-11T11:33:40.855Z,1020.44
2018-09-11T11:34:21.704Z,1020.46
2018-09-11T11:35:02.471Z,1020.42
2018-09-11T11:35:43.266Z,1020.4
2018-09-11T11:36:24.221Z,1020.47
2018-09-11T11:37:04.942Z,1020.43
2018-09-11T11:37:45.653Z,1020.43
2018-09-11T11:38:26.396Z,1020.46
2018-09-11T11:39:07.148Z,1020.44
2018-09-11T11:39:47.924Z,1020.41
2018-09-11T11:40:28.709Z,1020.42
2018-09-11T11:41:09.599Z,1020.37
2018-09-11T11:41:50.472Z,1020.38
2018-09-11T11:42:31.195Z,1020.37
2018-09-11T11:43:11.928Z,1020.37
2018-09-11T11:43:52.819Z,1020.34
2018-09-11T11:44:33.671Z,1020.37
2018-09-11T11:45:14.391Z,1020.4
2018-09-11T11:45:55.115Z,1020.36
2018-09-11T11:46:35.893Z,1020.4
2018-09-11T11:47:16.690Z,1020.37
2018-09-11T11:47:57.569Z,1020.38
2018-09-11T11:48:38.405Z,1020.39
2018-09-11T11:49:19.134Z,1020.35
2018-09-11T11:49:59.886Z,1020.37
2018-09-11T11:50:40.637Z,1020.34
2018-09-11T11:51:21.400Z,1020.37
2018-09-11T11:52:02.247Z,1020.33
2018-09-11T11:52:43.002Z,1020.36
2018-09-11T11:53:23.745Z,1020.35
2018-09-11T11:54:04.544Z,1020.3
2018-09-11T11:54:45.286Z,1020.38
2018-09-11T11:55:26.182Z,1020.35
2018-09-11T11:56:06.854Z,1020.27
2018-09-11T11:56:47.565Z,1020.34
2018-09-11T11:57:28.333Z,1020.31
2018-09-11T11:58:09.179Z,1020.27
2018-09-11T11:58:49.979Z,1020.3
2018-09-11T11:59:30.817Z,1020.27
2018-09-11T12:00:11.518Z,1020.26
2018-09-11T12:00:52.245Z,1020.24
2018-09-11T12:01:33.118Z,1020.21
2018-09-11T12:02:13.794Z,1020.2
2018-09-11T12:02:54.536Z,1020.16
2018-09-11T12:03:35.289Z,1020.16
2018-09-11T12:04:16.056Z,1020.2
2018-09-11T12:04:56.941Z,1020.21
2018-09-11T12:05:37.723Z,1020.15
2018-09-11T12:06:18.495Z,1020.21
2018-09-11T12:06:59.307Z,1020.14
2018-09-11T12:07:40.100Z,1020.16
2018-09-11T12:08:20.915Z,1020.12
2018-09-11T12:09:01.631Z,1020.11
2018-09-11T12:09:42.375Z,1020.16
2018-09-11T12:10:23.222Z,1020.15
2018-09-11T12:11:04.017Z,1020.16
2018-09-11T12:11:44.773Z,1020.18
2018-09-11T12:12:25.493Z,1020.17
2018-09-11T12:13:06.308Z,1020.21
2018-09-11T12:13:47.170Z,1020.2
2018-09-11T12:14:28.005Z,1020.26
2018-09-11T12:15:08.805Z,1020.26
2018-09-11T12:15:49.551Z,1020.3
2018-09-11T12:16:30.316Z,1020.3
2018-09-11T12:17:11.040Z,1020.19
2018-09-11T12:17:51.834Z,1020.31
2018-09-11T12:18:32.577Z,1020.32
2018-09-11T12:19:13.338Z,1020.27
2018-09-11T12:19:54.114Z,1020.3
2018-09-11T12:20:34.936Z,1020.24
2018-09-11T12:21:15.758Z,1020.24
2018-09-11T12:21:56.478Z,1020.27
2018-09-11T12:22:37.214Z,1020.28
2018-09-11T12:23:18.040Z,1020.25
2018-09-11T12:23:58.810Z,1020.2
2018-09-11T12:24:39.564Z,1020.2
2018-09-11T12:25:20.400Z,1020.19
2018-09-11T12:26:01.087Z,1020.17
2018-09-11T12:26:41.981Z,1020.16
2018-09-11T12:27:22.755Z,1020.25
2018-09-11T12:28:03.418Z,1020.15
2018-09-11T12:28:44.232Z,1020.13
2018-09-11T12:29:25.022Z,1020.11
2018-09-11T12:30:05.818Z,1020.09
2018-09-11T12:30:46.554Z,1020.06
2018-09-11T12:31:27.299Z,1020.06
2018-09-11T12:32:08.116Z,1020.04
2018-09-11T12:32:48.988Z,1020.06
2018-09-11T12:33:29.860Z,1020.02
2018-09-11T12:34:10.759Z,1020.06
2018-09-11T12:34:51.541Z,1020.01
2018-09-11T12:35:32.288Z,1020.04
2018-09-11T12:36:13.102Z,1020.03
2018-09-11T12:36:53.859Z,1020.06
2018-09-11T12:37:34.634Z,1020.03
2018-09-11T12:38:15.397Z,1019.98
2018-09-11T12:38:56.139Z,1019.95
2018-09-11T12:39:36.987Z,1019.99
2018-09-11T12:40:17.733Z,1020.01
2018-09-11T12:40:58.447Z,1019.98
2018-09-11T12:41:39.271Z,1019.93
2018-09-11T12:42:20.047Z,1020.02
2018-09-11T12:43:00.878Z,1019.95
2018-09-11T12:43:41.614Z,1019.94
2018-09-11T12:44:22.299Z,1019.92
2018-09-11T12:45:03.175Z,1019.92
2018-09-11T12:45:44.046Z,1019.94
2018-09-11T12:46:24.925Z,1019.91
2018-09-11T12:47:05.716Z,1019.91
2018-09-11T12:47:46.356Z,1019.91
2018-09-11T12:48:27.110Z,1019.9
2018-09-11T12:49:07.787Z,1019.9
2018-09-11T12:49:48.597Z,1019.89
2018-09-11T12:50:29.327Z,1019.88
2018-09-11T12:51:10.095Z,1019.91
2018-09-11T12:51:50.795Z,1019.87
2018-09-11T12:52:31.679Z,1019.88
2018-09-11T12:53:12.343Z,1019.87
2018-09-11T12:53:53.053Z,1019.85
2018-09-11T12:54:33.842Z,1019.86
2018-09-11T12:55:14.643Z,1019.84
2018-09-11T12:55:55.515Z,1019.79
2018-09-11T12:56:36.237Z,1019.84
2018-09-11T12:57:16.961Z,1019.84
2018-09-11T12:57:57.724Z,1019.84
2018-09-11T12:58:38.451Z,1019.83
2018-09-11T12:59:19.255Z,1019.85
2018-09-11T13:00:00.093Z,1019.85
2018-09-11T13:00:40.884Z,1019.83
2018-09-11T13:01:21.604Z,1019.8
2018-09-11T13:02:02.329Z,1019.83
2018-09-11T13:02:43.136Z,1019.85
2018-09-11T13:03:23.889Z,1019.84
2018-09-11T13:04:04.681Z,1019.83
2018-09-11T13:04:45.405Z,1019.84
2018-09-11T13:05:26.195Z,1019.8
2018-09-11T13:06:07.173Z,1019.84
2018-09-11T13:06:48.033Z,1019.81
2018-09-11T13:07:28.784Z,1019.82
2018-09-11T13:08:09.585Z,1019.82
2018-09-11T13:08:50.354Z,1019.76
2018-09-11T13:09:31.175Z,1019.79
2018-09-11T13:10:11.915Z,1019.8
2018-09-11T13:10:52.708Z,1019.82
2018-09-11T13:11:33.391Z,1019.79
2018-09-11T13:12:14.295Z,1019.83
2018-09-11T13:12:55.176Z,1019.81
2018-09-11T13:13:35.985Z,1019.81
2018-09-11T13:14:16.705Z,1019.79
2018-09-11T13:14:57.409Z,1019.81
2018-09-11T13:15:38.222Z,1019.82
2018-09-11T13:16:18.980Z,1019.83
2018-09-11T13:16:59.729Z,1019.82
2018-09-11T13:17:40.480Z,1019.82
2018-09-11T13:18:21.247Z,1019.82
2018-09-11T13:19:02.109Z,1019.81
2018-09-11T13:19:42.839Z,1019.82
2018-09-11T13:20:23.595Z,1019.84
2018-09-11T13:21:04.418Z,1019.79
2018-09-11T13:21:45.245Z,1019.8
2018-09-11T13:22:26.129Z,1019.81
2018-09-11T13:23:06.897Z,1019.8
2018-09-11T13:23:47.639Z,1019.79
2018-09-11T13:24:28.411Z,1019.81
2018-09-11T13:25:09.271Z,1019.83
2018-09-11T13:25:50.085Z,1019.83
2018-09-11T13:26:30.972Z,1019.8
2018-09-11T13:27:11.683Z,1019.86
2018-09-11T13:27:52.535Z,1019.77
2018-09-11T13:28:33.344Z,1019.84
2018-09-11T13:29:14.115Z,1019.85
2018-09-11T13:29:54.865Z,1019.84
2018-09-11T13:30:35.551Z,1019.81
2018-09-11T13:31:16.276Z,1019.84
2018-09-11T13:31:57.081Z,1019.86
2018-09-11T13:32:37.841Z,1019.8
2018-09-11T13:33:18.597Z,1019.86
2018-09-11T13:33:59.466Z,1019.87
2018-09-11T13:34:40.270Z,1019.86
2018-09-11T13:35:21.084Z,1019.86
2018-09-11T13:36:01.811Z,1019.86
2018-09-11T13:36:42.629Z,1019.88
2018-09-11T13:37:23.420Z,1019.81
2018-09-11T13:38:04.184Z,1019.76
2018-09-11T13:38:44.931Z,1019.77
2018-09-11T13:39:25.671Z,1019.79
2018-09-11T13:40:06.518Z,1019.78
2018-09-11T13:40:47.348Z,1019.74
2018-09-11T13:41:28.199Z,1019.78
2018-09-11T13:42:08.980Z,1019.81
2018-09-11T13:42:49.741Z,1019.81
2018-09-11T13:43:30.461Z,1019.79
2018-09-11T13:44:11.229Z,1019.83
2018-09-11T13:44:52.019Z,1019.89
2018-09-11T13:45:32.799Z,1019.82
2018-09-11T13:46:13.571Z,1019.89
2018-09-11T13:46:54.416Z,1019.86
2018-09-11T13:47:35.220Z,1019.84
2018-09-11T13:48:15.988Z,1019.83
2018-09-11T13:48:56.709Z,1019.81
2018-09-11T13:49:37.504Z,1019.77
2018-09-11T13:50:18.364Z,1019.81
2018-09-11T13:50:59.133Z,1019.78
2018-09-11T13:51:39.938Z,1019.78
2018-09-11T13:52:20.685Z,1019.77
2018-09-11T13:53:01.555Z,1019.77
2018-09-11T13:53:42.278Z,1019.72
2018-09-11T13:54:23.099Z,1019.73
2018-09-11T13:55:03.804Z,1019.77
2018-09-11T13:55:44.641Z,1019.75
2018-09-11T13:56:25.503Z,1019.72
2018-09-11T13:57:06.339Z,1019.72
2018-09-11T13:57:47.050Z,1019.73
2018-09-11T13:58:27.794Z,1019.75
2018-09-11T13:59:08.509Z,1019.72
2018-09-11T13:59:49.310Z,1019.68
2018-09-11T14:00:30.129Z,1019.7
2018-09-11T14:01:11.000Z,1019.71
2018-09-11T14:01:51.738Z,1019.78
2018-09-11T14:02:32.455Z,1019.67
2018-09-11T14:03:13.235Z,1019.71
2018-09-11T14:03:54.014Z,1019.67
2018-09-11T14:04:34.733Z,1019.63
2018-09-11T14:05:15.557Z,1019.63
2018-09-11T14:05:56.343Z,1019.62
2018-09-11T14:06:37.191Z,1019.57
2018-09-11T14:07:18.052Z,1019.59
2018-09-11T14:07:58.842Z,1019.61
2018-09-11T14:08:39.687Z,1019.57
2018-09-11T14:09:20.332Z,1019.6
2018-09-11T14:10:01.046Z,1019.55
2018-09-11T14:10:41.833Z,1019.58
2018-09-11T14:11:22.654Z,1019.54
2018-09-11T14:12:03.445Z,1019.58
2018-09-11T14:12:44.226Z,1019.57
2018-09-11T14:13:25.044Z,1019.53
2018-09-11T14:14:05.865Z,1019.55
2018-09-11T14:14:46.627Z,1019.55
2018-09-11T14:15:27.379Z,1019.52
2018-09-11T14:16:08.102Z,1019.54
2018-09-11T14:16:48.824Z,1019.55
2018-09-11T14:17:29.705Z,1019.51
2018-09-11T14:18:10.547Z,1019.52
2018-09-11T14:18:51.318Z,1019.57
2018-09-11T14:19:32.087Z,1019.53
2018-09-11T14:20:12.876Z,1019.53
2018-09-11T14:20:53.689Z,1019.55
2018-09-11T14:21:34.503Z,1019.52
2018-09-11T14:22:15.229Z,1019.53
2018-09-11T14:22:55.929Z,1019.52
2018-09-11T14:23:36.759Z,1019.49
2018-09-11T14:24:17.548Z,1019.49
2018-09-11T14:24:58.312Z,1019.49
2018-09-11T14:25:39.066Z,1019.5
2018-09-11T14:26:19.828Z,1019.48
2018-09-11T14:27:00.645Z,1019.49
2018-09-11T14:27:41.499Z,1019.51
2018-09-11T14:28:22.224Z,1019.45
2018-09-11T14:29:03.036Z,1019.54
2018-09-11T14:29:43.792Z,1019.52
2018-09-11T14:30:24.574Z,1019.51
2018-09-11T14:31:05.317Z,1019.52
2018-09-11T14:31:46.023Z,1019.51
2018-09-11T14:32:26.796Z,1019.54
2018-09-11T14:33:07.622Z,1019.52
2018-09-11T14:33:48.438Z,1019.49
2018-09-11T14:34:29.229Z,1019.47
2018-09-11T14:35:09.961Z,1019.49
2018-09-11T14:35:50.679Z,1019.47
2018-09-11T14:36:31.439Z,1019.47
2018-09-11T14:37:12.244Z,1019.5
2018-09-11T14:37:53.111Z,1019.49
2018-09-11T14:38:33.770Z,1019.51
2018-09-11T14:39:14.592Z,1019.5
2018-09-11T14:39:55.551Z,1019.51
2018-09-11T14:40:36.331Z,1019.49
2018-09-11T14:41:17.058Z,1019.51
2018-09-11T14:41:57.802Z,1019.53
2018-09-11T14:42:38.576Z,1019.47
2018-09-11T14:43:19.330Z,1019.52
2018-09-11T14:44:00.184Z,1019.49
2018-09-11T14:44:40.942Z,1019.44
2018-09-11T14:45:21.760Z,1019.45
2018-09-11T14:46:02.482Z,1019.43
2018-09-11T14:46:43.274Z,1019.43
2018-09-11T14:47:24.128Z,1019.4
2018-09-11T14:48:04.847Z,1019.35
2018-09-11T14:48:45.572Z,1019.38
2018-09-11T14:49:26.306Z,1019.37
2018-09-11T14:50:07.107Z,1019.38
2018-09-11T14:50:47.910Z,1019.38
2018-09-11T14:51:28.785Z,1019.37
2018-09-11T14:52:09.502Z,1019.4
2018-09-11T14:52:50.368Z,1019.38
2018-09-11T14:53:31.090Z,1019.38
2018-09-11T14:54:11.904Z,1019.37
2018-09-11T14:54:52.819Z,1019.33
2018-09-11T14:55:33.558Z,1019.27
2018-09-11T14:56:14.330Z,1019.27
2018-09-11T14:56:55.186Z,1019.26
2018-09-11T14:57:35.969Z,1019.22
2018-09-11T14:58:16.783Z,1019.25
2018-09-11T14:58:57.514Z,1019.29
2018-09-11T14:59:38.266Z,1019.25
2018-09-11T15:00:19.167Z,1019.31
2018-09-11T15:00:59.850Z,1019.32
2018-09-11T15:01:40.614Z,1019.35
2018-09-11T15:02:21.400Z,1019.38
2018-09-11T15:03:02.165Z,1019.37
2018-09-11T15:03:42.974Z,1019.36
2018-09-11T15:04:23.801Z,1019.35
2018-09-11T15:05:04.458Z,1019.29
2018-09-11T15:05:45.380Z,1019.3
2018-09-11T15:06:26.121Z,1019.29
2018-09-11T15:07:06.905Z,1019.24
2018-09-11T15:07:47.704Z,1019.29
2018-09-11T15:08:28.423Z,1019.3
2018-09-11T15:09:09.246Z,1019.27
2018-09-11T15:09:49.995Z,1019.26
2018-09-11T15:10:30.841Z,1019.25